createdAt,value
2023-05-02T00:02:04.918Z,9.80
2023-05-02T00:07:07.048Z,9.70
2023-05-02T00:12:09.098Z,9.70
2023-05-02T00:17:18.750Z,9.60
2023-05-02T00:22:21.353Z,9.60
2023-05-02T00:27:23.534Z,9.50
2023-05-02T00:32:26.221Z,9.50
2023-05-02T00:37:31.375Z,9.30
2023-05-02T00:42:36.004Z,9.30
2023-05-02T00:47:38.846Z,9.30
2023-05-02T00:52:41.797Z,9.20
2023-05-02T00:57:43.918Z,9.10
2023-05-02T01:02:59.079Z,8.90
2023-05-02T01:08:05.097Z,8.80
2023-05-02T01:13:17.449Z,8.80
2023-05-02T01:18:24.788Z,8.80
2023-05-02T01:23:29.909Z,8.70
2023-05-02T01:28:44.148Z,8.70
2023-05-02T01:33:48.106Z,8.60
2023-05-02T01:38:51.748Z,8.60
2023-05-02T01:43:59.433Z,8.50
2023-05-02T01:49:05.862Z,8.50
2023-05-02T01:54:09.705Z,8.40
2023-05-02T01:59:14.828Z,8.30
2023-05-02T02:04:19.385Z,8.30
2023-05-02T02:09:21.968Z,8.20
2023-05-02T02:14:27.929Z,8.20
2023-05-02T02:19:32.226Z,8.10
2023-05-02T02:24:37.686Z,8.10
2023-05-02T02:29:39.847Z,8.10
2023-05-02T02:34:42.040Z,8.00
2023-05-02T02:40:01.149Z,8.00
2023-05-02T02:45:03.512Z,7.90
2023-05-02T02:50:31.271Z,7.90
2023-05-02T02:55:57.833Z,7.80
2023-05-02T03:01:04.855Z,7.70
2023-05-02T03:06:07.484Z,7.60
2023-05-02T03:11:10.057Z,7.60
2023-05-02T03:16:34.174Z,7.60
2023-05-02T03:21:37.950Z,7.70
2023-05-02T03:26:59.241Z,7.70
2023-05-02T03:32:06.822Z,7.80
2023-05-02T03:37:10.347Z,7.70
2023-05-02T03:42:13.125Z,7.80
2023-05-02T03:47:15.373Z,7.70
2023-05-02T03:52:19.508Z,7.60
2023-05-02T03:57:24.119Z,7.60
2023-05-02T04:02:26.934Z,7.50
2023-05-02T04:07:30.037Z,7.40
2023-05-02T04:12:36.301Z,7.20
2023-05-02T04:17:39.631Z,7.20
2023-05-02T04:22:44.538Z,7.10
2023-05-02T04:27:47.546Z,7.00
2023-05-02T04:32:53.668Z,7.00
2023-05-02T04:37:56.877Z,7.00
2023-05-02T04:42:59.513Z,6.90
2023-05-02T04:48:07.044Z,6.90
2023-05-02T04:53:09.259Z,6.90
2023-05-02T04:58:12.778Z,6.90
2023-05-02T05:03:16.659Z,6.80
2023-05-02T05:08:19.056Z,6.80
2023-05-02T05:13:21.321Z,6.70
2023-05-02T05:18:25.045Z,6.70
2023-05-02T05:23:27.348Z,6.70
2023-05-02T05:28:29.981Z,6.80
2023-05-02T05:33:32.284Z,6.90
2023-05-02T05:38:35.727Z,6.90
2023-05-02T05:43:38.960Z,6.90
2023-05-02T05:48:42.267Z,7.00
2023-05-02T05:53:45.502Z,7.10
2023-05-02T05:58:48.984Z,7.10
2023-05-02T06:03:52.346Z,7.10
2023-05-02T06:08:54.961Z,7.20
2023-05-02T06:13:57.377Z,7.40
2023-05-02T06:19:00.049Z,7.50
2023-05-02T06:24:02.160Z,7.80
2023-05-02T06:29:04.220Z,8.10
2023-05-02T06:34:06.479Z,9.40
2023-05-02T06:39:08.723Z,11.40
2023-05-02T06:44:10.871Z,12.10
2023-05-02T06:49:12.965Z,13.10
2023-05-02T06:54:16.014Z,14.30
2023-05-02T06:59:18.227Z,15.30
2023-05-02T07:04:20.412Z,16.10
2023-05-02T07:09:22.511Z,16.80
2023-05-02T07:14:24.645Z,17.50
2023-05-02T07:19:26.715Z,18.10
2023-05-02T07:24:28.882Z,18.50
2023-05-02T07:29:30.953Z,18.70
2023-05-02T07:34:33.110Z,18.90
2023-05-02T07:39:35.196Z,19.30
2023-05-02T07:44:37.506Z,19.50
2023-05-02T07:49:39.760Z,19.60
2023-05-02T07:54:42.387Z,19.90
2023-05-02T07:59:44.537Z,20.00
2023-05-02T08:04:48.182Z,19.90
2023-05-02T08:09:50.682Z,19.30
2023-05-02T08:14:52.900Z,19.00
2023-05-02T08:19:55.125Z,18.50
2023-05-02T08:24:57.245Z,18.00
2023-05-02T08:30:00.766Z,17.50
2023-05-02T08:35:03.586Z,17.30
2023-05-02T08:40:08.405Z,17.50
2023-05-02T08:45:14.129Z,17.60
2023-05-02T08:50:19.239Z,17.70
2023-05-02T08:55:27.759Z,17.80
2023-05-02T09:00:30.842Z,17.80
2023-05-02T09:05:39.832Z,18.10
2023-05-02T09:10:43.093Z,18.10
2023-05-02T09:15:59.201Z,18.30
2023-05-02T09:21:04.008Z,18.50
2023-05-02T09:26:18.824Z,18.70
2023-05-02T09:31:54.125Z,18.80
2023-05-02T09:36:56.291Z,18.90
2023-05-02T09:41:59.435Z,19.10
2023-05-02T09:47:02.304Z,19.40
2023-05-02T09:52:15.720Z,19.40
2023-05-02T09:57:17.814Z,19.30
2023-05-02T10:02:21.999Z,19.40
2023-05-02T10:07:25.843Z,19.40
2023-05-02T10:12:32.830Z,19.30
2023-05-02T10:17:44.106Z,19.40
2023-05-02T10:22:49.195Z,19.80
2023-05-02T10:27:51.654Z,20.20
2023-05-02T10:32:56.531Z,20.30
2023-05-02T10:38:01.214Z,20.50
2023-05-02T10:43:04.659Z,20.40
2023-05-02T10:48:23.475Z,20.70
2023-05-02T10:53:44.740Z,20.60
2023-05-02T10:58:51.171Z,21.10
2023-05-02T11:04:06.856Z,21.30
2023-05-02T11:09:18.625Z,21.60
2023-05-02T11:14:27.468Z,21.40
2023-05-02T11:19:31.660Z,21.60
2023-05-02T11:24:44.961Z,21.90
2023-05-02T11:30:00.872Z,21.40
2023-05-02T11:35:04.290Z,21.70
2023-05-02T11:40:13.822Z,22.40
2023-05-02T11:45:16.102Z,22.50
2023-05-02T11:50:19.066Z,22.60
2023-05-02T11:55:22.112Z,22.30
2023-05-02T12:00:28.338Z,22.40
2023-05-02T12:05:30.619Z,22.20
2023-05-02T12:10:37.676Z,22.30
2023-05-02T12:15:40.157Z,22.70
2023-05-02T12:20:43.138Z,22.30
2023-05-02T12:25:45.322Z,22.50
2023-05-02T12:30:49.915Z,22.10
2023-05-02T12:35:54.058Z,22.60
2023-05-02T12:40:59.069Z,23.20
2023-05-02T12:46:11.183Z,23.30
2023-05-02T12:51:28.839Z,23.10
2023-05-02T12:56:43.797Z,22.90
2023-05-02T13:01:46.432Z,22.70
2023-05-02T13:06:54.814Z,23.30
2023-05-02T13:12:03.757Z,23.40
2023-05-02T13:17:06.943Z,23.70
2023-05-02T13:22:09.167Z,23.90
2023-05-02T13:27:11.930Z,24.30
2023-05-02T13:32:15.421Z,24.10
2023-05-02T13:37:20.961Z,23.80
2023-05-02T13:42:23.915Z,24.30
2023-05-02T13:47:30.521Z,24.60
2023-05-02T13:52:34.507Z,24.60
2023-05-02T13:57:38.733Z,24.60
2023-05-02T14:02:50.202Z,24.60
2023-05-02T14:07:53.450Z,24.80
2023-05-02T14:12:56.670Z,25.10
2023-05-02T14:18:00.616Z,24.40
2023-05-02T14:23:07.462Z,23.80
2023-05-02T14:28:09.952Z,23.60
2023-05-02T14:33:13.195Z,23.40
2023-05-02T14:38:17.797Z,23.20
2023-05-02T14:43:19.902Z,23.50
2023-05-02T14:48:23.090Z,23.90
2023-05-02T14:53:25.226Z,23.70
2023-05-02T14:58:28.060Z,23.40
2023-05-02T15:03:30.430Z,23.30
2023-05-02T15:08:32.582Z,22.70
2023-05-02T15:13:34.670Z,22.70
2023-05-02T15:18:36.775Z,22.30
2023-05-02T15:23:38.954Z,21.90
2023-05-02T15:28:41.499Z,21.50
2023-05-02T15:33:43.708Z,21.40
2023-05-02T15:38:45.834Z,21.60
2023-05-02T15:43:47.974Z,21.90
2023-05-02T15:48:50.613Z,22.60
2023-05-02T15:53:52.967Z,22.90
2023-05-02T15:58:55.204Z,23.50
2023-05-02T16:03:57.345Z,23.80
2023-05-02T16:09:00.510Z,23.30
2023-05-02T16:14:04.028Z,23.40
2023-05-02T16:19:12.698Z,23.00
2023-05-02T16:24:14.833Z,23.00
2023-05-02T16:29:17.142Z,24.10
2023-05-02T16:34:19.703Z,24.10
2023-05-02T16:39:22.177Z,24.90
2023-05-02T16:44:24.260Z,24.60
2023-05-02T16:49:26.415Z,24.30
2023-05-02T16:54:28.525Z,24.40
2023-05-02T16:59:32.158Z,24.70
2023-05-02T17:04:35.838Z,24.20
2023-05-02T17:09:42.158Z,23.90
2023-05-02T17:14:44.430Z,23.70
2023-05-02T17:19:48.128Z,23.50
2023-05-02T17:24:52.954Z,23.80
2023-05-02T17:29:55.166Z,23.60
2023-05-02T17:34:58.753Z,23.60
2023-05-02T17:40:02.408Z,24.10
2023-05-02T17:45:08.019Z,24.10
2023-05-02T17:50:14.289Z,23.10
2023-05-02T17:55:22.832Z,22.60
2023-05-02T18:00:26.561Z,22.40
2023-05-02T18:05:33.258Z,21.80
2023-05-02T18:10:38.851Z,21.60
2023-05-02T18:15:41.759Z,20.80
2023-05-02T18:20:49.133Z,20.40
2023-05-02T18:25:51.785Z,19.70
2023-05-02T18:30:53.992Z,19.50
2023-05-02T18:35:56.551Z,19.10
2023-05-02T18:40:58.721Z,18.90
2023-05-02T18:46:01.724Z,18.60
2023-05-02T18:51:04.715Z,18.40
2023-05-02T18:56:14.590Z,18.10
2023-05-02T19:01:18.071Z,18.00
2023-05-02T19:06:20.582Z,17.90
2023-05-02T19:11:22.859Z,17.80
2023-05-02T19:16:27.231Z,17.70
2023-05-02T19:21:29.497Z,17.50
2023-05-02T19:26:32.052Z,17.30
2023-05-02T19:31:34.508Z,17.10
2023-05-02T19:36:36.768Z,17.00
2023-05-02T19:41:40.127Z,16.80
2023-05-02T19:46:42.628Z,16.60
2023-05-02T19:51:44.860Z,16.40
2023-05-02T19:56:48.949Z,16.30
2023-05-02T20:01:51.283Z,16.20
2023-05-02T20:06:54.088Z,16.00
2023-05-02T20:11:56.326Z,15.90
2023-05-02T20:17:01.811Z,15.80
2023-05-02T20:22:04.422Z,15.70
2023-05-02T20:27:07.691Z,15.70
2023-05-02T20:32:10.444Z,15.50
2023-05-02T20:37:12.722Z,15.50
2023-05-02T20:42:17.939Z,15.40
2023-05-02T20:47:21.927Z,15.30
2023-05-02T20:52:24.154Z,15.20
2023-05-02T20:57:26.223Z,15.10
2023-05-02T21:02:28.392Z,15.00
2023-05-02T21:07:30.684Z,14.90
2023-05-02T21:12:32.810Z,14.90
2023-05-02T21:17:35.178Z,14.80
2023-05-02T21:22:37.398Z,14.70
2023-05-02T21:27:39.544Z,14.60
2023-05-02T21:32:42.134Z,14.50
2023-05-02T21:37:44.540Z,14.40
2023-05-02T21:42:46.651Z,14.40
2023-05-02T21:47:48.719Z,14.30
2023-05-02T21:52:50.871Z,14.20
2023-05-02T21:57:52.917Z,14.20
2023-05-02T22:02:55.244Z,14.10
2023-05-02T22:07:57.615Z,14.00
2023-05-02T22:12:59.708Z,13.90
2023-05-02T22:18:04.908Z,13.90
2023-05-02T22:23:07.278Z,13.90
2023-05-02T22:28:11.767Z,13.80
2023-05-02T22:33:14.166Z,13.70
2023-05-02T22:38:16.960Z,13.70
2023-05-02T22:43:19.243Z,13.60
2023-05-02T22:48:21.394Z,13.50
2023-05-02T22:53:23.608Z,13.40
2023-05-02T22:58:25.735Z,13.40
2023-05-02T23:03:27.886Z,13.30
2023-05-02T23:08:30.103Z,13.20
2023-05-02T23:13:32.352Z,13.20
2023-05-02T23:18:34.486Z,13.10
2023-05-02T23:23:36.784Z,13.10
2023-05-02T23:28:40.004Z,12.90
2023-05-02T23:33:42.436Z,12.80
2023-05-02T23:38:44.657Z,12.80
2023-05-02T23:43:47.032Z,12.80
2023-05-02T23:48:49.136Z,12.80
2023-05-02T23:53:51.302Z,12.80
2023-05-02T23:58:53.482Z,12.70
